sensor_id;sensor_type;location;lat;lon;timestamp;P1;durP1;ratioP1;P2;durP2;ratioP2
3036;SDS011;1528;52.550;13.408;2023-05-10T00:00:02;6.97;;;6.40;;
3036;SDS011;1528;52.550;13.408;2023-05-10T00:02:48;9.30;;;7.73;;
3036;SDS011;1528;52.550;13.408;2023-05-10T00:05:34;8.20;;;7.60;;
3036;SDS011;1528;52.550;13.408;2023-05-10T00:08:20;7.80;;;7.10;;
3036;SDS011;1528;52.550;13.408;2023-05-10T00:11:06;8.60;;;7.90;;
3036;SDS011;1528;52.550;13.408;2023-05-10T00:13:52;7.13;;;6.53;;
3036;SDS011;1528;52.550;13.408;2023-05-10T00:16:39;8.23;;;7.53;;
3036;SDS011;1528;52.550;13.408;2023-05-10T00:19:28;8.57;;;7.77;;
3036;SDS011;1528;52.550;13.408;2023-05-10T00:22:18;7.13;;;6.53;;
3036;SDS011;1528;52.550;13.408;2023-05-10T00:25:04;7.40;;;6.80;;
3036;SDS011;1528;52.550;13.408;2023-05-10T00:27:51;8.10;;;7.40;;
3036;SDS011;1528;52.550;13.408;2023-05-10T00:30:38;6.90;;;6.40;;
3036;SDS011;1528;52.550;13.408;2023-05-10T00:33:25;7.87;;;7.13;;
3036;SDS011;1528;52.550;13.408;2023-05-10T00:36:11;11.00;;;7.73;;
3036;SDS011;1528;52.550;13.408;2023-05-10T00:38:56;8.57;;;7.87;;
3036;SDS011;1528;52.550;13.408;2023-05-10T00:41:42;8.50;;;7.63;;
3036;SDS011;1528;52.550;13.408;2023-05-10T00:44:27;8.47;;;7.77;;
3036;SDS011;1528;52.550;13.408;2023-05-10T00:47:14;8.47;;;7.77;;
3036;SDS011;1528;52.550;13.408;2023-05-10T00:50:02;9.30;;;8.40;;
3036;SDS011;1528;52.550;13.408;2023-05-10T00:52:49;8.30;;;7.60;;
3036;SDS011;1528;52.550;13.408;2023-05-10T00:55:35;8.90;;;8.10;;
3036;SDS011;1528;52.550;13.408;2023-05-10T00:58:21;7.97;;;7.27;;
3036;SDS011;1528;52.550;13.408;2023-05-10T01:01:07;8.30;;;7.43;;
3036;SDS011;1528;52.550;13.408;2023-05-10T01:03:54;9.00;;;8.23;;
3036;SDS011;1528;52.550;13.408;2023-05-10T01:06:42;9.10;;;8.30;;
3036;SDS011;1528;52.550;13.408;2023-05-10T01:09:28;8.17;;;7.57;;
3036;SDS011;1528;52.550;13.408;2023-05-10T01:12:13;7.90;;;7.20;;
3036;SDS011;1528;52.550;13.408;2023-05-10T01:14:59;8.77;;;8.07;;
3036;SDS011;1528;52.550;13.408;2023-05-10T01:17:46;7.60;;;7.00;;
3036;SDS011;1528;52.550;13.408;2023-05-10T01:20:35;8.43;;;7.70;;
3036;SDS011;1528;52.550;13.408;2023-05-10T01:23:35;7.77;;;7.17;;
3036;SDS011;1528;52.550;13.408;2023-05-10T01:26:37;7.93;;;7.23;;
3036;SDS011;1528;52.550;13.408;2023-05-10T01:32:56;8.93;;;7.90;;
3036;SDS011;1528;52.550;13.408;2023-05-10T01:35:47;8.60;;;7.90;;
3036;SDS011;1528;52.550;13.408;2023-05-10T01:38:41;8.50;;;7.80;;
3036;SDS011;1528;52.550;13.408;2023-05-10T01:41:33;8.63;;;7.73;;
3036;SDS011;1528;52.550;13.408;2023-05-10T01:44:27;8.30;;;7.60;;
3036;SDS011;1528;52.550;13.408;2023-05-10T01:47:20;7.67;;;7.07;;
3036;SDS011;1528;52.550;13.408;2023-05-10T01:50:17;8.37;;;7.57;;
3036;SDS011;1528;52.550;13.408;2023-05-10T01:53:05;8.30;;;7.77;;
3036;SDS011;1528;52.550;13.408;2023-05-10T01:55:54;8.03;;;7.23;;
3036;SDS011;1528;52.550;13.408;2023-05-10T01:58:41;8.60;;;7.90;;
3036;SDS011;1528;52.550;13.408;2023-05-10T02:01:30;7.90;;;7.20;;
3036;SDS011;1528;52.550;13.408;2023-05-10T02:04:16;8.10;;;7.50;;
3036;SDS011;1528;52.550;13.408;2023-05-10T02:07:05;8.60;;;7.80;;
3036;SDS011;1528;52.550;13.408;2023-05-10T02:09:52;8.07;;;7.27;;
3036;SDS011;1528;52.550;13.408;2023-05-10T02:12:39;7.67;;;7.10;;
3036;SDS011;1528;52.550;13.408;2023-05-10T02:15:27;9.30;;;8.40;;
3036;SDS011;1528;52.550;13.408;2023-05-10T02:18:14;9.10;;;8.20;;
3036;SDS011;1528;52.550;13.408;2023-05-10T02:21:02;7.87;;;7.30;;
3036;SDS011;1528;52.550;13.408;2023-05-10T02:23:50;7.83;;;7.23;;
3036;SDS011;1528;52.550;13.408;2023-05-10T02:26:38;7.80;;;7.13;;
3036;SDS011;1528;52.550;13.408;2023-05-10T02:29:25;8.33;;;7.63;;
3036;SDS011;1528;52.550;13.408;2023-05-10T02:32:11;7.47;;;6.80;;
3036;SDS011;1528;52.550;13.408;2023-05-10T02:34:58;7.30;;;6.80;;
3036;SDS011;1528;52.550;13.408;2023-05-10T02:37:46;8.10;;;7.40;;
3036;SDS011;1528;52.550;13.408;2023-05-10T02:40:34;7.67;;;7.00;;
3036;SDS011;1528;52.550;13.408;2023-05-10T02:43:21;7.63;;;7.03;;
3036;SDS011;1528;52.550;13.408;2023-05-10T02:46:08;8.30;;;7.60;;
3036;SDS011;1528;52.550;13.408;2023-05-10T02:48:54;7.93;;;7.33;;
3036;SDS011;1528;52.550;13.408;2023-05-10T02:51:40;8.10;;;7.40;;
3036;SDS011;1528;52.550;13.408;2023-05-10T02:54:32;8.10;;;7.40;;
3036;SDS011;1528;52.550;13.408;2023-05-10T02:57:23;7.93;;;7.07;;
3036;SDS011;1528;52.550;13.408;2023-05-10T03:00:12;8.37;;;7.33;;
3036;SDS011;1528;52.550;13.408;2023-05-10T03:02:58;7.93;;;7.23;;
3036;SDS011;1528;52.550;13.408;2023-05-10T03:05:44;8.07;;;7.37;;
3036;SDS011;1528;52.550;13.408;2023-05-10T03:08:29;7.57;;;6.73;;
3036;SDS011;1528;52.550;13.408;2023-05-10T03:11:23;8.20;;;7.30;;
3036;SDS011;1528;52.550;13.408;2023-05-10T03:14:25;7.40;;;6.50;;
3036;SDS011;1528;52.550;13.408;2023-05-10T03:17:22;10.03;;;7.60;;
3036;SDS011;1528;52.550;13.408;2023-05-10T03:20:16;7.77;;;7.17;;
3036;SDS011;1528;52.550;13.408;2023-05-10T03:23:09;7.10;;;6.50;;
3036;SDS011;1528;52.550;13.408;2023-05-10T03:25:58;8.00;;;7.30;;
3036;SDS011;1528;52.550;13.408;2023-05-10T03:28:44;7.27;;;6.77;;
3036;SDS011;1528;52.550;13.408;2023-05-10T03:31:33;7.57;;;6.87;;
3036;SDS011;1528;52.550;13.408;2023-05-10T03:34:22;7.20;;;6.70;;
3036;SDS011;1528;52.550;13.408;2023-05-10T03:37:08;8.30;;;7.20;;
3036;SDS011;1528;52.550;13.408;2023-05-10T03:39:54;7.93;;;7.13;;
3036;SDS011;1528;52.550;13.408;2023-05-10T03:42:40;8.03;;;6.57;;
3036;SDS011;1528;52.550;13.408;2023-05-10T03:45:25;8.07;;;7.27;;
3036;SDS011;1528;52.550;13.408;2023-05-10T03:48:12;11.60;;;7.23;;
3036;SDS011;1528;52.550;13.408;2023-05-10T03:50:58;7.80;;;6.60;;
3036;SDS011;1528;52.550;13.408;2023-05-10T03:53:43;7.03;;;6.43;;
3036;SDS011;1528;52.550;13.408;2023-05-10T03:56:29;6.87;;;6.27;;
3036;SDS011;1528;52.550;13.408;2023-05-10T03:59:15;6.70;;;6.10;;
3036;SDS011;1528;52.550;13.408;2023-05-10T04:02:00;6.93;;;6.40;;
3036;SDS011;1528;52.550;13.408;2023-05-10T04:04:47;6.60;;;6.00;;
3036;SDS011;1528;52.550;13.408;2023-05-10T04:07:33;8.30;;;7.50;;
3036;SDS011;1528;52.550;13.408;2023-05-10T04:10:18;6.97;;;6.47;;
3036;SDS011;1528;52.550;13.408;2023-05-10T04:13:04;7.30;;;6.63;;
3036;SDS011;1528;52.550;13.408;2023-05-10T04:15:50;7.60;;;6.90;;
3036;SDS011;1528;52.550;13.408;2023-05-10T04:18:36;7.80;;;6.30;;
3036;SDS011;1528;52.550;13.408;2023-05-10T04:24:25;6.63;;;6.10;;
3036;SDS011;1528;52.550;13.408;2023-05-10T04:27:10;10.17;;;7.23;;
3036;SDS011;1528;52.550;13.408;2023-05-10T04:29:56;7.63;;;7.03;;
3036;SDS011;1528;52.550;13.408;2023-05-10T04:32:42;7.20;;;6.60;;
3036;SDS011;1528;52.550;13.408;2023-05-10T04:35:27;6.93;;;6.27;;
3036;SDS011;1528;52.550;13.408;2023-05-10T04:38:14;8.47;;;6.97;;
3036;SDS011;1528;52.550;13.408;2023-05-10T04:41:04;7.43;;;6.80;;
3036;SDS011;1528;52.550;13.408;2023-05-10T04:43:51;9.67;;;7.23;;
3036;SDS011;1528;52.550;13.408;2023-05-10T04:46:36;7.13;;;6.43;;
3036;SDS011;1528;52.550;13.408;2023-05-10T04:49:22;7.83;;;6.77;;
3036;SDS011;1528;52.550;13.408;2023-05-10T04:52:08;6.87;;;6.20;;
3036;SDS011;1528;52.550;13.408;2023-05-10T04:54:55;6.87;;;6.17;;
3036;SDS011;1528;52.550;13.408;2023-05-10T04:57:45;7.47;;;6.60;;
3036;SDS011;1528;52.550;13.408;2023-05-10T05:00:32;8.10;;;7.37;;
3036;SDS011;1528;52.550;13.408;2023-05-10T05:03:18;6.50;;;5.90;;
3036;SDS011;1528;52.550;13.408;2023-05-10T05:06:04;7.00;;;6.40;;
3036;SDS011;1528;52.550;13.408;2023-05-10T05:08:50;9.40;;;6.73;;
3036;SDS011;1528;52.550;13.408;2023-05-10T05:11:37;7.03;;;6.53;;
3036;SDS011;1528;52.550;13.408;2023-05-10T05:14:24;6.47;;;5.73;;
3036;SDS011;1528;52.550;13.408;2023-05-10T05:17:09;7.63;;;5.83;;
3036;SDS011;1528;52.550;13.408;2023-05-10T05:19:55;6.73;;;6.23;;
3036;SDS011;1528;52.550;13.408;2023-05-10T05:22:40;6.30;;;5.80;;
3036;SDS011;1528;52.550;13.408;2023-05-10T05:25:26;6.10;;;5.60;;
3036;SDS011;1528;52.550;13.408;2023-05-10T05:28:13;7.00;;;5.50;;
3036;SDS011;1528;52.550;13.408;2023-05-10T05:30:59;6.50;;;5.90;;
3036;SDS011;1528;52.550;13.408;2023-05-10T05:33:44;6.07;;;5.57;;
3036;SDS011;1528;52.550;13.408;2023-05-10T05:36:30;6.10;;;5.60;;
3036;SDS011;1528;52.550;13.408;2023-05-10T05:39:16;6.17;;;5.57;;
3036;SDS011;1528;52.550;13.408;2023-05-10T05:42:02;9.03;;;5.43;;
3036;SDS011;1528;52.550;13.408;2023-05-10T05:44:49;6.00;;;5.47;;
3036;SDS011;1528;52.550;13.408;2023-05-10T05:47:34;6.80;;;6.20;;
3036;SDS011;1528;52.550;13.408;2023-05-10T05:50:20;6.00;;;5.50;;
3036;SDS011;1528;52.550;13.408;2023-05-10T05:53:06;9.00;;;5.60;;
3036;SDS011;1528;52.550;13.408;2023-05-10T05:55:51;7.17;;;6.57;;
3036;SDS011;1528;52.550;13.408;2023-05-10T05:58:38;6.10;;;5.60;;
3036;SDS011;1528;52.550;13.408;2023-05-10T06:01:25;10.93;;;9.90;;
3036;SDS011;1528;52.550;13.408;2023-05-10T06:04:11;7.70;;;6.67;;
3036;SDS011;1528;52.550;13.408;2023-05-10T06:06:56;7.33;;;5.80;;
3036;SDS011;1528;52.550;13.408;2023-05-10T06:09:42;8.07;;;6.50;;
3036;SDS011;1528;52.550;13.408;2023-05-10T06:12:27;9.70;;;8.73;;
3036;SDS011;1528;52.550;13.408;2023-05-10T06:15:13;8.27;;;7.50;;
3036;SDS011;1528;52.550;13.408;2023-05-10T06:18:00;12.60;;;10.23;;
3036;SDS011;1528;52.550;13.408;2023-05-10T06:20:45;7.30;;;6.63;;
3036;SDS011;1528;52.550;13.408;2023-05-10T06:23:31;6.63;;;6.03;;
3036;SDS011;1528;52.550;13.408;2023-05-10T06:26:17;6.07;;;5.47;;
3036;SDS011;1528;52.550;13.408;2023-05-10T06:29:02;6.57;;;4.97;;
3036;SDS011;1528;52.550;13.408;2023-05-10T06:31:51;5.77;;;5.27;;
3036;SDS011;1528;52.550;13.408;2023-05-10T06:34:39;5.23;;;4.73;;
3036;SDS011;1528;52.550;13.408;2023-05-10T06:37:24;5.53;;;4.20;;
3036;SDS011;1528;52.550;13.408;2023-05-10T06:40:10;6.40;;;5.17;;
3036;SDS011;1528;52.550;13.408;2023-05-10T06:42:56;6.73;;;5.40;;
3036;SDS011;1528;52.550;13.408;2023-05-10T06:45:41;4.90;;;4.60;;
3036;SDS011;1528;52.550;13.408;2023-05-10T06:48:27;4.43;;;4.03;;
3036;SDS011;1528;52.550;13.408;2023-05-10T06:51:14;6.83;;;4.37;;
3036;SDS011;1528;52.550;13.408;2023-05-10T06:54:00;5.40;;;4.90;;
3036;SDS011;1528;52.550;13.408;2023-05-10T06:56:45;6.90;;;4.83;;
3036;SDS011;1528;52.550;13.408;2023-05-10T06:59:31;6.93;;;4.60;;
3036;SDS011;1528;52.550;13.408;2023-05-10T07:02:17;5.27;;;4.77;;
3036;SDS011;1528;52.550;13.408;2023-05-10T07:05:04;5.10;;;4.70;;
3036;SDS011;1528;52.550;13.408;2023-05-10T07:07:51;5.00;;;4.60;;
3036;SDS011;1528;52.550;13.408;2023-05-10T07:10:37;4.87;;;4.40;;
3036;SDS011;1528;52.550;13.408;2023-05-10T07:13:22;6.57;;;4.63;;
3036;SDS011;1528;52.550;13.408;2023-05-10T07:16:08;5.90;;;4.20;;
3036;SDS011;1528;52.550;13.408;2023-05-10T07:18:54;4.97;;;4.57;;
3036;SDS011;1528;52.550;13.408;2023-05-10T07:21:39;4.93;;;4.17;;
3036;SDS011;1528;52.550;13.408;2023-05-10T07:24:27;6.83;;;4.90;;
3036;SDS011;1528;52.550;13.408;2023-05-10T07:27:13;5.10;;;4.60;;
3036;SDS011;1528;52.550;13.408;2023-05-10T07:29:59;8.80;;;5.37;;
3036;SDS011;1528;52.550;13.408;2023-05-10T07:32:45;4.80;;;4.40;;
3036;SDS011;1528;52.550;13.408;2023-05-10T07:35:30;5.97;;;5.47;;
3036;SDS011;1528;52.550;13.408;2023-05-10T07:38:16;6.63;;;4.77;;
3036;SDS011;1528;52.550;13.408;2023-05-10T07:41:03;8.50;;;5.00;;
3036;SDS011;1528;52.550;13.408;2023-05-10T07:43:50;6.90;;;4.77;;
3036;SDS011;1528;52.550;13.408;2023-05-10T07:46:35;6.20;;;4.63;;
3036;SDS011;1528;52.550;13.408;2023-05-10T07:49:21;5.13;;;4.40;;
3036;SDS011;1528;52.550;13.408;2023-05-10T07:52:07;5.80;;;5.30;;
3036;SDS011;1528;52.550;13.408;2023-05-10T07:54:53;7.40;;;5.87;;
3036;SDS011;1528;52.550;13.408;2023-05-10T07:57:42;5.40;;;4.90;;
3036;SDS011;1528;52.550;13.408;2023-05-10T08:00:27;9.67;;;4.70;;
3036;SDS011;1528;52.550;13.408;2023-05-10T08:03:16;6.50;;;4.60;;
3036;SDS011;1528;52.550;13.408;2023-05-10T08:06:05;4.60;;;4.13;;
3036;SDS011;1528;52.550;13.408;2023-05-10T08:08:52;5.30;;;4.80;;
3036;SDS011;1528;52.550;13.408;2023-05-10T08:11:38;6.63;;;4.87;;
3036;SDS011;1528;52.550;13.408;2023-05-10T08:14:25;5.03;;;4.10;;
3036;SDS011;1528;52.550;13.408;2023-05-10T08:17:12;8.03;;;7.10;;
3036;SDS011;1528;52.550;13.408;2023-05-10T08:19:57;6.03;;;5.43;;
3036;SDS011;1528;52.550;13.408;2023-05-10T08:22:43;5.37;;;4.47;;
3036;SDS011;1528;52.550;13.408;2023-05-10T08:25:29;6.80;;;5.37;;
3036;SDS011;1528;52.550;13.408;2023-05-10T08:28:15;5.80;;;5.10;;
3036;SDS011;1528;52.550;13.408;2023-05-10T08:31:02;5.00;;;4.50;;
3036;SDS011;1528;52.550;13.408;2023-05-10T08:33:49;5.40;;;4.70;;
3036;SDS011;1528;52.550;13.408;2023-05-10T08:36:35;6.00;;;5.40;;
3036;SDS011;1528;52.550;13.408;2023-05-10T08:39:20;5.43;;;4.93;;
3036;SDS011;1528;52.550;13.408;2023-05-10T08:42:06;5.43;;;4.93;;
3036;SDS011;1528;52.550;13.408;2023-05-10T08:44:53;6.37;;;5.67;;
3036;SDS011;1528;52.550;13.408;2023-05-10T08:47:41;7.67;;;6.87;;
3036;SDS011;1528;52.550;13.408;2023-05-10T08:50:27;6.80;;;6.30;;
3036;SDS011;1528;52.550;13.408;2023-05-10T08:53:14;5.27;;;4.87;;
3036;SDS011;1528;52.550;13.408;2023-05-10T08:56:01;8.60;;;4.83;;
3036;SDS011;1528;52.550;13.408;2023-05-10T08:58:48;5.23;;;4.37;;
3036;SDS011;1528;52.550;13.408;2023-05-10T09:01:33;6.33;;;4.63;;
3036;SDS011;1528;52.550;13.408;2023-05-10T09:04:22;5.27;;;4.43;;
3036;SDS011;1528;52.550;13.408;2023-05-10T09:07:08;4.83;;;4.20;;
3036;SDS011;1528;52.550;13.408;2023-05-10T09:09:54;5.70;;;4.37;;
3036;SDS011;1528;52.550;13.408;2023-05-10T09:12:41;4.50;;;4.20;;
3036;SDS011;1528;52.550;13.408;2023-05-10T09:15:29;5.50;;;4.97;;
3036;SDS011;1528;52.550;13.408;2023-05-10T09:18:14;5.73;;;5.30;;
3036;SDS011;1528;52.550;13.408;2023-05-10T09:21:01;6.00;;;5.47;;
3036;SDS011;1528;52.550;13.408;2023-05-10T09:23:47;9.80;;;5.30;;
3036;SDS011;1528;52.550;13.408;2023-05-10T09:26:33;5.53;;;4.80;;
3036;SDS011;1528;52.550;13.408;2023-05-10T09:29:20;8.03;;;4.40;;
3036;SDS011;1528;52.550;13.408;2023-05-10T09:32:05;5.63;;;4.40;;
3036;SDS011;1528;52.550;13.408;2023-05-10T09:34:51;5.83;;;4.80;;
3036;SDS011;1528;52.550;13.408;2023-05-10T09:37:40;4.80;;;4.47;;
3036;SDS011;1528;52.550;13.408;2023-05-10T09:40:27;4.93;;;4.43;;
3036;SDS011;1528;52.550;13.408;2023-05-10T09:43:14;4.20;;;3.90;;
3036;SDS011;1528;52.550;13.408;2023-05-10T09:46:00;5.10;;;4.60;;
3036;SDS011;1528;52.550;13.408;2023-05-10T09:48:53;6.50;;;4.53;;
3036;SDS011;1528;52.550;13.408;2023-05-10T09:51:39;4.70;;;4.20;;
3036;SDS011;1528;52.550;13.408;2023-05-10T09:54:26;4.60;;;4.20;;
3036;SDS011;1528;52.550;13.408;2023-05-10T09:57:18;6.97;;;4.33;;
3036;SDS011;1528;52.550;13.408;2023-05-10T10:00:06;5.40;;;4.90;;
3036;SDS011;1528;52.550;13.408;2023-05-10T10:02:54;10.57;;;9.47;;
3036;SDS011;1528;52.550;13.408;2023-05-10T10:05:40;7.80;;;4.90;;
3036;SDS011;1528;52.550;13.408;2023-05-10T10:08:27;5.70;;;4.77;;
3036;SDS011;1528;52.550;13.408;2023-05-10T10:11:14;5.40;;;4.90;;
3036;SDS011;1528;52.550;13.408;2023-05-10T10:13:59;5.57;;;4.60;;
3036;SDS011;1528;52.550;13.408;2023-05-10T10:16:45;5.03;;;4.60;;
3036;SDS011;1528;52.550;13.408;2023-05-10T10:19:32;4.80;;;4.30;;
3036;SDS011;1528;52.550;13.408;2023-05-10T10:22:18;5.57;;;4.80;;
3036;SDS011;1528;52.550;13.408;2023-05-10T10:25:04;5.40;;;4.97;;
3036;SDS011;1528;52.550;13.408;2023-05-10T10:27:58;4.80;;;4.40;;
3036;SDS011;1528;52.550;13.408;2023-05-10T10:30:52;4.80;;;4.40;;
3036;SDS011;1528;52.550;13.408;2023-05-10T10:33:43;5.97;;;4.73;;
3036;SDS011;1528;52.550;13.408;2023-05-10T10:36:42;5.17;;;4.67;;
3036;SDS011;1528;52.550;13.408;2023-05-10T10:39:30;10.60;;;4.97;;
3036;SDS011;1528;52.550;13.408;2023-05-10T10:45:30;5.10;;;4.60;;
3036;SDS011;1528;52.550;13.408;2023-05-10T10:48:21;5.00;;;4.60;;
3036;SDS011;1528;52.550;13.408;2023-05-10T10:51:07;6.30;;;4.63;;
3036;SDS011;1528;52.550;13.408;2023-05-10T10:53:53;5.23;;;4.53;;
3036;SDS011;1528;52.550;13.408;2023-05-10T10:56:38;6.00;;;5.00;;
3036;SDS011;1528;52.550;13.408;2023-05-10T10:59:26;10.00;;;6.90;;
3036;SDS011;1528;52.550;13.408;2023-05-10T11:08:20;6.63;;;5.03;;
3036;SDS011;1528;52.550;13.408;2023-05-10T11:11:13;24.17;;;10.17;;
3036;SDS011;1528;52.550;13.408;2023-05-10T11:14:02;42.33;;;13.20;;
3036;SDS011;1528;52.550;13.408;2023-05-10T11:16:49;52.83;;;15.60;;
3036;SDS011;1528;52.550;13.408;2023-05-10T11:19:35;44.97;;;14.73;;
3036;SDS011;1528;52.550;13.408;2023-05-10T11:22:23;23.63;;;11.47;;
3036;SDS011;1528;52.550;13.408;2023-05-10T11:25:10;28.63;;;11.00;;
3036;SDS011;1528;52.550;13.408;2023-05-10T11:27:56;37.77;;;10.00;;
3036;SDS011;1528;52.550;13.408;2023-05-10T11:30:43;35.23;;;11.80;;
3036;SDS011;1528;52.550;13.408;2023-05-10T11:33:29;7.90;;;4.33;;
3036;SDS011;1528;52.550;13.408;2023-05-10T11:36:14;5.17;;;4.07;;
3036;SDS011;1528;52.550;13.408;2023-05-10T11:39:04;18.37;;;8.40;;
3036;SDS011;1528;52.550;13.408;2023-05-10T11:41:50;22.63;;;9.13;;
3036;SDS011;1528;52.550;13.408;2023-05-10T11:44:35;21.57;;;7.90;;
3036;SDS011;1528;52.550;13.408;2023-05-10T11:47:21;13.20;;;7.50;;
3036;SDS011;1528;52.550;13.408;2023-05-10T11:50:07;7.23;;;4.80;;
3036;SDS011;1528;52.550;13.408;2023-05-10T11:52:53;5.30;;;4.77;;
3036;SDS011;1528;52.550;13.408;2023-05-10T11:55:41;6.10;;;5.13;;
3036;SDS011;1528;52.550;13.408;2023-05-10T11:58:27;13.80;;;6.13;;
3036;SDS011;1528;52.550;13.408;2023-05-10T12:01:13;10.90;;;6.70;;
3036;SDS011;1528;52.550;13.408;2023-05-10T12:03:59;7.37;;;5.40;;
3036;SDS011;1528;52.550;13.408;2023-05-10T12:06:45;9.67;;;4.80;;
3036;SDS011;1528;52.550;13.408;2023-05-10T12:09:31;12.80;;;5.57;;
3036;SDS011;1528;52.550;13.408;2023-05-10T12:12:18;6.50;;;5.90;;
3036;SDS011;1528;52.550;13.408;2023-05-10T12:15:04;7.07;;;5.60;;
3036;SDS011;1528;52.550;13.408;2023-05-10T12:17:54;9.13;;;6.67;;
3036;SDS011;1528;52.550;13.408;2023-05-10T12:20:42;8.47;;;6.93;;
3036;SDS011;1528;52.550;13.408;2023-05-10T12:23:27;6.53;;;5.93;;
3036;SDS011;1528;52.550;13.408;2023-05-10T12:26:13;6.50;;;5.93;;
3036;SDS011;1528;52.550;13.408;2023-05-10T12:29:13;6.73;;;6.30;;
3036;SDS011;1528;52.550;13.408;2023-05-10T12:32:00;9.80;;;7.10;;
3036;SDS011;1528;52.550;13.408;2023-05-10T12:34:46;7.33;;;6.83;;
3036;SDS011;1528;52.550;13.408;2023-05-10T12:37:32;9.07;;;6.00;;
3036;SDS011;1528;52.550;13.408;2023-05-10T12:40:19;7.63;;;6.73;;
3036;SDS011;1528;52.550;13.408;2023-05-10T12:43:04;6.10;;;5.73;;
3036;SDS011;1528;52.550;13.408;2023-05-10T12:45:51;6.83;;;6.33;;
3036;SDS011;1528;52.550;13.408;2023-05-10T12:48:38;5.97;;;5.40;;
3036;SDS011;1528;52.550;13.408;2023-05-10T12:51:24;9.10;;;5.37;;
3036;SDS011;1528;52.550;13.408;2023-05-10T12:54:10;11.47;;;9.20;;
3036;SDS011;1528;52.550;13.408;2023-05-10T12:56:55;7.03;;;6.40;;
3036;SDS011;1528;52.550;13.408;2023-05-10T12:59:41;10.10;;;7.40;;
3036;SDS011;1528;52.550;13.408;2023-05-10T13:02:28;9.47;;;7.13;;
3036;SDS011;1528;52.550;13.408;2023-05-10T13:05:14;6.17;;;5.70;;
3036;SDS011;1528;52.550;13.408;2023-05-10T13:07:59;9.57;;;9.07;;
3036;SDS011;1528;52.550;13.408;2023-05-10T13:10:45;7.80;;;7.30;;
3036;SDS011;1528;52.550;13.408;2023-05-10T13:13:31;6.63;;;6.23;;
3036;SDS011;1528;52.550;13.408;2023-05-10T13:16:18;6.13;;;5.57;;
3036;SDS011;1528;52.550;13.408;2023-05-10T13:19:05;7.80;;;7.13;;
3036;SDS011;1528;52.550;13.408;2023-05-10T13:21:50;7.60;;;6.80;;
3036;SDS011;1528;52.550;13.408;2023-05-10T13:24:36;20.33;;;9.60;;
3036;SDS011;1528;52.550;13.408;2023-05-10T13:27:21;9.20;;;6.80;;
3036;SDS011;1528;52.550;13.408;2023-05-10T13:30:08;12.47;;;7.03;;
3036;SDS011;1528;52.550;13.408;2023-05-10T13:32:55;11.48;;;5.55;;
3036;SDS011;1528;52.550;13.408;2023-05-10T13:35:42;9.70;;;7.30;;
3036;SDS011;1528;52.550;13.408;2023-05-10T13:38:28;11.27;;;8.47;;
3036;SDS011;1528;52.550;13.408;2023-05-10T13:41:14;7.45;;;6.68;;
3036;SDS011;1528;52.550;13.408;2023-05-10T13:43:59;6.78;;;6.38;;
3036;SDS011;1528;52.550;13.408;2023-05-10T13:46:45;5.97;;;5.77;;
3036;SDS011;1528;52.550;13.408;2023-05-10T13:49:31;6.50;;;6.03;;
3036;SDS011;1528;52.550;13.408;2023-05-10T13:52:18;6.90;;;6.47;;
3036;SDS011;1528;52.550;13.408;2023-05-10T13:55:05;7.05;;;6.35;;
3036;SDS011;1528;52.550;13.408;2023-05-10T13:57:51;7.72;;;7.00;;
3036;SDS011;1528;52.550;13.408;2023-05-10T14:00:36;8.57;;;7.50;;
3036;SDS011;1528;52.550;13.408;2023-05-10T14:03:22;7.13;;;6.63;;
3036;SDS011;1528;52.550;13.408;2023-05-10T14:06:08;6.30;;;5.85;;
3036;SDS011;1528;52.550;13.408;2023-05-10T14:08:55;10.15;;;9.38;;
3036;SDS011;1528;52.550;13.408;2023-05-10T14:11:41;6.40;;;5.90;;
3036;SDS011;1528;52.550;13.408;2023-05-10T14:14:27;6.80;;;6.47;;
3036;SDS011;1528;52.550;13.408;2023-05-10T14:17:13;7.40;;;5.77;;
3036;SDS011;1528;52.550;13.408;2023-05-10T14:19:58;7.80;;;6.37;;
3036;SDS011;1528;52.550;13.408;2023-05-10T14:22:44;6.80;;;6.40;;
3036;SDS011;1528;52.550;13.408;2023-05-10T14:25:31;5.70;;;5.40;;
3036;SDS011;1528;52.550;13.408;2023-05-10T14:28:16;7.70;;;7.10;;
3036;SDS011;1528;52.550;13.408;2023-05-10T14:31:03;6.95;;;6.43;;
3036;SDS011;1528;52.550;13.408;2023-05-10T14:33:49;7.10;;;6.80;;
3036;SDS011;1528;52.550;13.408;2023-05-10T14:36:35;7.18;;;6.85;;
3036;SDS011;1528;52.550;13.408;2023-05-10T14:39:21;6.30;;;6.03;;
3036;SDS011;1528;52.550;13.408;2023-05-10T14:42:08;7.30;;;6.93;;
3036;SDS011;1528;52.550;13.408;2023-05-10T14:44:54;7.95;;;7.53;;
3036;SDS011;1528;52.550;13.408;2023-05-10T14:47:40;7.32;;;6.68;;
3036;SDS011;1528;52.550;13.408;2023-05-10T14:50:25;8.48;;;8.07;;
3036;SDS011;1528;52.550;13.408;2023-05-10T14:53:11;13.50;;;12.50;;
3036;SDS011;1528;52.550;13.408;2023-05-10T14:55:57;10.82;;;10.13;;
3036;SDS011;1528;52.550;13.408;2023-05-10T14:58:45;10.90;;;10.17;;
3036;SDS011;1528;52.550;13.408;2023-05-10T15:01:31;7.47;;;6.97;;
3036;SDS011;1528;52.550;13.408;2023-05-10T15:04:18;9.70;;;9.10;;
3036;SDS011;1528;52.550;13.408;2023-05-10T15:07:05;9.40;;;9.00;;
3036;SDS011;1528;52.550;13.408;2023-05-10T15:09:51;5.87;;;5.67;;
3036;SDS011;1528;52.550;13.408;2023-05-10T15:12:36;6.00;;;5.57;;
3036;SDS011;1528;52.550;13.408;2023-05-10T15:15:23;6.27;;;5.77;;
3036;SDS011;1528;52.550;13.408;2023-05-10T15:18:09;7.33;;;5.60;;
3036;SDS011;1528;52.550;13.408;2023-05-10T15:20:54;4.40;;;4.13;;
3036;SDS011;1528;52.550;13.408;2023-05-10T15:23:43;5.40;;;5.00;;
3036;SDS011;1528;52.550;13.408;2023-05-10T15:26:33;5.20;;;4.90;;
3036;SDS011;1528;52.550;13.408;2023-05-10T15:29:18;5.10;;;4.77;;
3036;SDS011;1528;52.550;13.408;2023-05-10T15:32:05;5.33;;;4.90;;
3036;SDS011;1528;52.550;13.408;2023-05-10T15:34:51;4.50;;;4.10;;
3036;SDS011;1528;52.550;13.408;2023-05-10T15:37:37;4.77;;;3.87;;
3036;SDS011;1528;52.550;13.408;2023-05-10T15:40:23;4.20;;;3.80;;
3036;SDS011;1528;52.550;13.408;2023-05-10T15:43:09;4.87;;;4.57;;
3036;SDS011;1528;52.550;13.408;2023-05-10T15:45:54;4.87;;;4.57;;
3036;SDS011;1528;52.550;13.408;2023-05-10T15:48:41;5.53;;;5.10;;
3036;SDS011;1528;52.550;13.408;2023-05-10T15:51:27;5.50;;;4.50;;
3036;SDS011;1528;52.550;13.408;2023-05-10T15:54:12;5.97;;;5.43;;
3036;SDS011;1528;52.550;13.408;2023-05-10T15:56:58;6.57;;;6.17;;
3036;SDS011;1528;52.550;13.408;2023-05-10T15:59:44;7.17;;;6.47;;
3036;SDS011;1528;52.550;13.408;2023-05-10T16:02:30;5.20;;;4.80;;
3036;SDS011;1528;52.550;13.408;2023-05-10T16:05:17;5.40;;;4.67;;
3036;SDS011;1528;52.550;13.408;2023-05-10T16:08:03;5.40;;;5.00;;
3036;SDS011;1528;52.550;13.408;2023-05-10T16:10:49;5.70;;;5.30;;
3036;SDS011;1528;52.550;13.408;2023-05-10T16:13:36;5.80;;;5.13;;
3036;SDS011;1528;52.550;13.408;2023-05-10T16:16:21;4.73;;;4.43;;
3036;SDS011;1528;52.550;13.408;2023-05-10T16:19:07;5.30;;;4.90;;
3036;SDS011;1528;52.550;13.408;2023-05-10T16:21:54;5.13;;;4.73;;
3036;SDS011;1528;52.550;13.408;2023-05-10T16:24:40;5.00;;;4.70;;
3036;SDS011;1528;52.550;13.408;2023-05-10T16:27:25;5.03;;;4.73;;
3036;SDS011;1528;52.550;13.408;2023-05-10T16:30:12;5.03;;;4.63;;
3036;SDS011;1528;52.550;13.408;2023-05-10T16:32:59;5.60;;;4.80;;
3036;SDS011;1528;52.550;13.408;2023-05-10T16:35:45;5.17;;;4.67;;
3036;SDS011;1528;52.550;13.408;2023-05-10T16:38:32;5.13;;;4.70;;
3036;SDS011;1528;52.550;13.408;2023-05-10T16:41:17;5.37;;;4.87;;
3036;SDS011;1528;52.550;13.408;2023-05-10T16:44:04;5.30;;;4.80;;
3036;SDS011;1528;52.550;13.408;2023-05-10T16:46:49;5.40;;;4.90;;
3036;SDS011;1528;52.550;13.408;2023-05-10T16:49:35;8.40;;;5.50;;
3036;SDS011;1528;52.550;13.408;2023-05-10T16:52:21;6.90;;;5.47;;
3036;SDS011;1528;52.550;13.408;2023-05-10T16:55:08;7.37;;;6.30;;
3036;SDS011;1528;52.550;13.408;2023-05-10T16:57:54;7.67;;;7.10;;
3036;SDS011;1528;52.550;13.408;2023-05-10T17:00:42;8.30;;;7.60;;
3036;SDS011;1528;52.550;13.408;2023-05-10T17:03:28;8.90;;;8.13;;
3036;SDS011;1528;52.550;13.408;2023-05-10T17:06:14;9.63;;;8.70;;
3036;SDS011;1528;52.550;13.408;2023-05-10T17:08:59;8.97;;;8.10;;
3036;SDS011;1528;52.550;13.408;2023-05-10T17:11:46;9.60;;;8.70;;
3036;SDS011;1528;52.550;13.408;2023-05-10T17:14:31;9.97;;;8.30;;